createdAt,value
2023-08-14T00:01:19.514Z,13.47
2023-08-14T00:03:49.100Z,13.40
2023-08-14T00:06:18.599Z,13.46
2023-08-14T00:08:48.109Z,13.44
2023-08-14T00:11:18.941Z,13.41
2023-08-14T00:13:57.238Z,13.45
2023-08-14T00:16:27.934Z,13.38
2023-08-14T00:18:57.613Z,13.37
2023-08-14T00:21:27.253Z,13.30
2023-08-14T00:23:56.675Z,13.27
2023-08-14T00:26:27.705Z,13.21
2023-08-14T00:28:57.096Z,13.15
2023-08-14T00:31:26.625Z,13.13
2023-08-14T00:33:56.202Z,13.06
2023-08-14T00:36:25.669Z,12.92
2023-08-14T00:38:55.011Z,12.83
2023-08-14T00:41:25.776Z,12.77
2023-08-14T00:43:55.548Z,12.77
2023-08-14T00:47:55.837Z,12.60
2023-08-14T00:50:25.576Z,12.63
2023-08-14T00:52:58.452Z,12.70
2023-08-14T00:55:28.645Z,12.71
2023-08-14T00:57:58.625Z,12.73
2023-08-14T01:00:29.790Z,12.68
2023-08-14T01:03:01.417Z,12.60
2023-08-14T01:05:31.183Z,12.43
2023-08-14T01:08:00.788Z,12.48
2023-08-14T01:10:42.986Z,12.43
2023-08-14T01:13:24.984Z,12.44
2023-08-14T01:15:59.958Z,12.47
2023-08-14T01:18:35.886Z,12.34
2023-08-14T01:21:31.874Z,12.33
2023-08-14T01:24:16.485Z,12.23
2023-08-14T01:26:48.033Z,12.24
2023-08-14T01:29:17.355Z,12.23
2023-08-14T01:31:46.811Z,12.20
2023-08-14T01:34:16.938Z,12.17
2023-08-14T01:36:56.835Z,12.01
2023-08-14T01:39:37.934Z,11.99
2023-08-14T01:42:20.716Z,11.99
2023-08-14T01:44:55.091Z,11.92
2023-08-14T01:47:27.337Z,11.94
2023-08-14T01:49:59.878Z,11.95
2023-08-14T01:52:29.594Z,11.89
2023-08-14T01:55:02.738Z,11.85
2023-08-14T01:57:34.394Z,11.87
2023-08-14T02:00:06.819Z,11.92
2023-08-14T02:02:36.396Z,11.93
2023-08-14T02:05:06.517Z,11.84
2023-08-14T02:07:36.027Z,11.87
2023-08-14T02:10:06.628Z,11.77
2023-08-14T02:12:37.520Z,11.71
2023-08-14T02:15:08.816Z,11.67
2023-08-14T02:17:38.424Z,11.70
2023-08-14T02:20:09.828Z,11.67
2023-08-14T02:22:39.453Z,11.68
2023-08-14T02:25:09.956Z,11.62
2023-08-14T02:27:40.872Z,11.64
2023-08-14T02:30:11.422Z,11.61
2023-08-14T02:32:41.002Z,11.62
2023-08-14T02:35:11.358Z,11.67
2023-08-14T02:37:41.000Z,11.69
2023-08-14T02:40:11.515Z,11.66
2023-08-14T02:42:42.356Z,11.56
2023-08-14T02:45:12.975Z,11.49
2023-08-14T02:47:42.676Z,11.53
2023-08-14T02:50:12.779Z,11.61
2023-08-14T02:52:42.247Z,11.65
2023-08-14T02:55:12.271Z,11.59
2023-08-14T02:57:43.429Z,11.56
2023-08-14T03:00:14.218Z,11.52
2023-08-14T03:02:43.793Z,11.49
2023-08-14T03:05:14.281Z,11.43
2023-08-14T03:07:43.870Z,11.36
2023-08-14T03:10:13.324Z,11.33
2023-08-14T03:12:44.247Z,11.33
2023-08-14T03:15:14.083Z,11.33
2023-08-14T03:17:43.690Z,11.29
2023-08-14T03:20:14.226Z,11.19
2023-08-14T03:22:44.151Z,11.18
2023-08-14T03:25:13.871Z,11.22
2023-08-14T03:27:44.773Z,11.26
2023-08-14T03:30:15.146Z,11.29
2023-08-14T03:32:44.684Z,11.28
2023-08-14T03:35:14.193Z,11.23
2023-08-14T03:37:43.674Z,11.22
2023-08-14T03:40:14.699Z,11.27
2023-08-14T03:42:45.657Z,11.29
2023-08-14T03:45:15.120Z,11.25
2023-08-14T03:48:55.645Z,11.27
2023-08-14T03:51:25.023Z,11.24
2023-08-14T03:53:54.474Z,11.28
2023-08-14T03:56:23.920Z,11.34
2023-08-14T03:58:53.482Z,11.41
2023-08-14T04:01:23.214Z,11.47
2023-08-14T04:03:54.195Z,11.44
2023-08-14T04:06:23.873Z,11.48
2023-08-14T04:08:53.787Z,11.50
2023-08-14T04:11:23.826Z,11.49
2023-08-14T04:13:53.324Z,11.54
2023-08-14T04:16:22.843Z,11.58
2023-08-14T04:18:53.848Z,11.61
2023-08-14T04:21:23.235Z,11.68
2023-08-14T04:23:52.750Z,11.75
2023-08-14T04:26:22.416Z,11.82
2023-08-14T04:28:51.995Z,11.88
2023-08-14T04:31:21.540Z,11.97
2023-08-14T04:33:55.316Z,12.08
2023-08-14T04:36:24.897Z,12.29
2023-08-14T04:38:54.346Z,12.42
2023-08-14T04:41:23.785Z,12.62
2023-08-14T04:43:53.216Z,12.89
2023-08-14T04:46:41.104Z,13.17
2023-08-14T04:49:20.608Z,13.43
2023-08-14T04:51:50.092Z,13.63
2023-08-14T04:54:19.790Z,14.04
2023-08-14T04:56:49.321Z,14.37
2023-08-14T04:59:18.897Z,14.68
2023-08-14T05:01:48.661Z,15.30
2023-08-14T05:04:19.710Z,15.84
2023-08-14T05:06:49.302Z,16.57
2023-08-14T05:09:26.533Z,16.87
2023-08-14T05:11:58.131Z,17.22
2023-08-14T05:14:28.020Z,17.47
2023-08-14T05:16:57.655Z,17.76
2023-08-14T05:19:28.734Z,17.92
2023-08-14T05:21:58.397Z,18.07
2023-08-14T05:24:27.996Z,18.20
2023-08-14T05:26:57.560Z,18.39
2023-08-14T05:29:27.127Z,18.55
2023-08-14T05:31:56.624Z,18.77
2023-08-14T05:34:27.479Z,19.00
2023-08-14T05:36:57.236Z,19.13
2023-08-14T05:39:28.315Z,19.26
2023-08-14T05:42:00.898Z,19.43
2023-08-14T05:44:30.300Z,19.57
2023-08-14T05:46:59.783Z,19.66
2023-08-14T05:49:30.787Z,19.73
2023-08-14T05:52:00.196Z,19.83
2023-08-14T05:54:29.848Z,19.90
2023-08-14T05:56:59.254Z,20.05
2023-08-14T05:59:28.705Z,20.12
2023-08-14T06:01:59.739Z,20.30
2023-08-14T06:04:32.262Z,20.53
2023-08-14T06:07:01.876Z,20.61
2023-08-14T06:09:31.520Z,20.67
2023-08-14T06:12:01.117Z,20.79
2023-08-14T06:14:30.590Z,20.93
2023-08-14T06:17:00.151Z,20.84
2023-08-14T06:19:31.004Z,20.77
2023-08-14T06:22:00.531Z,20.85
2023-08-14T06:24:30.647Z,20.91
2023-08-14T06:27:00.072Z,20.93
2023-08-14T06:29:29.592Z,21.11
2023-08-14T06:31:59.707Z,21.35
2023-08-14T06:34:30.651Z,21.46
2023-08-14T06:37:00.128Z,21.49
2023-08-14T06:39:29.657Z,21.53
2023-08-14T06:41:59.331Z,21.73
2023-08-14T06:44:28.747Z,21.74
2023-08-14T06:48:55.328Z,21.85
2023-08-14T06:51:24.871Z,21.96
2023-08-14T06:53:55.971Z,22.04
2023-08-14T06:56:25.762Z,21.95
2023-08-14T06:58:55.389Z,22.01
2023-08-14T07:01:25.490Z,22.07
2023-08-14T07:03:56.613Z,22.16
2023-08-14T07:06:26.246Z,21.97
2023-08-14T07:08:55.778Z,21.88
2023-08-14T07:11:25.362Z,21.88
2023-08-14T07:13:54.884Z,21.89
2023-08-14T07:16:24.787Z,21.91
2023-08-14T07:18:55.856Z,22.03
2023-08-14T07:21:25.459Z,22.17
2023-08-14T07:23:55.050Z,22.22
2023-08-14T07:26:24.940Z,22.24
2023-08-14T07:28:56.147Z,22.29
2023-08-14T07:31:25.696Z,22.32
2023-08-14T07:33:56.600Z,22.26
2023-08-14T07:36:26.195Z,22.36
2023-08-14T07:38:55.775Z,22.36
2023-08-14T07:41:25.467Z,22.44
2023-08-14T07:43:55.082Z,22.44
2023-08-14T07:46:27.390Z,22.45
2023-08-14T07:48:58.183Z,22.50
2023-08-14T07:51:27.821Z,22.56
2023-08-14T07:53:57.207Z,22.57
2023-08-14T07:56:26.576Z,22.60
2023-08-14T07:58:56.183Z,22.55
2023-08-14T08:01:25.705Z,22.45
2023-08-14T08:03:56.727Z,22.41
2023-08-14T08:06:27.000Z,22.45
2023-08-14T08:08:56.468Z,22.57
2023-08-14T08:11:25.968Z,22.71
2023-08-14T08:13:58.276Z,22.90
2023-08-14T08:16:28.047Z,23.24
2023-08-14T08:18:58.954Z,23.61
2023-08-14T08:21:28.516Z,24.12
2023-08-14T08:23:57.992Z,24.58
2023-08-14T08:26:28.154Z,25.01
2023-08-14T08:28:57.735Z,25.36
2023-08-14T08:31:27.190Z,25.58
2023-08-14T08:33:58.335Z,25.86
2023-08-14T08:36:28.039Z,25.76
2023-08-14T08:38:57.368Z,25.80
2023-08-14T08:41:33.784Z,25.95
2023-08-14T08:44:10.182Z,26.16
2023-08-14T08:46:54.376Z,26.31
2023-08-14T08:49:28.836Z,26.47
2023-08-14T08:52:02.024Z,26.48
2023-08-14T08:54:31.729Z,26.48
2023-08-14T08:57:02.230Z,26.69
2023-08-14T08:59:32.124Z,26.63
2023-08-14T09:02:01.846Z,26.38
2023-08-14T09:04:32.809Z,26.43
2023-08-14T09:07:02.446Z,26.30
2023-08-14T09:09:32.174Z,26.21
2023-08-14T09:12:01.595Z,26.40
2023-08-14T09:14:31.722Z,26.50
2023-08-14T09:17:04.333Z,26.55
2023-08-14T09:19:35.165Z,26.63
2023-08-14T09:22:05.581Z,26.31
2023-08-14T09:24:37.752Z,26.54
2023-08-14T09:27:08.817Z,26.43
2023-08-14T09:29:38.858Z,26.37
2023-08-14T09:32:08.368Z,26.56
2023-08-14T09:34:40.267Z,26.70
2023-08-14T09:37:10.369Z,26.62
2023-08-14T09:39:39.794Z,26.44
2023-08-14T09:42:09.387Z,26.25
2023-08-14T09:44:39.007Z,26.22
2023-08-14T09:48:55.289Z,26.25
2023-08-14T09:51:24.896Z,26.48
2023-08-14T09:53:59.092Z,26.63
2023-08-14T09:56:29.182Z,26.59
2023-08-14T09:58:58.665Z,26.48
2023-08-14T10:01:29.166Z,26.12
2023-08-14T10:04:00.623Z,25.96
2023-08-14T10:06:30.308Z,25.91
2023-08-14T10:09:03.385Z,26.02
2023-08-14T10:11:34.063Z,25.91
2023-08-14T10:14:07.503Z,25.94
2023-08-14T10:16:40.783Z,26.10
2023-08-14T10:19:16.514Z,26.26
2023-08-14T10:21:50.293Z,26.19
2023-08-14T10:24:20.796Z,26.23
2023-08-14T10:26:50.927Z,26.33
2023-08-14T10:29:21.086Z,26.22
2023-08-14T10:31:50.801Z,26.34
2023-08-14T10:34:22.804Z,26.32
2023-08-14T10:36:53.924Z,26.44
2023-08-14T10:39:37.061Z,26.45
2023-08-14T10:42:08.215Z,26.27
2023-08-14T10:44:39.159Z,26.18
2023-08-14T10:47:09.192Z,26.21
2023-08-14T10:49:51.645Z,26.03
2023-08-14T10:52:22.591Z,26.32
2023-08-14T10:54:54.510Z,26.59
2023-08-14T10:57:30.999Z,26.96
2023-08-14T11:00:01.326Z,27.22
2023-08-14T11:02:32.645Z,27.13
2023-08-14T11:05:14.427Z,26.76
2023-08-14T11:07:43.914Z,26.44
2023-08-14T11:10:18.215Z,26.13
2023-08-14T11:12:47.749Z,25.90
2023-08-14T11:15:17.727Z,25.73
2023-08-14T11:17:48.748Z,25.74
2023-08-14T11:20:20.563Z,25.97
2023-08-14T11:22:50.934Z,26.16
2023-08-14T11:25:20.585Z,26.45
2023-08-14T11:27:54.476Z,26.83
2023-08-14T11:30:27.044Z,27.09
2023-08-14T11:32:57.764Z,26.78
2023-08-14T11:35:30.002Z,26.95
2023-08-14T11:37:59.701Z,26.59
2023-08-14T11:40:29.342Z,26.43
2023-08-14T11:42:59.116Z,26.43
2023-08-14T11:45:28.929Z,26.60
2023-08-14T11:47:59.463Z,26.83
2023-08-14T11:50:30.433Z,26.42
2023-08-14T11:53:00.321Z,26.48
2023-08-14T11:55:30.816Z,26.58
2023-08-14T11:58:04.337Z,26.79
2023-08-14T12:00:34.490Z,27.27
2023-08-14T12:03:04.665Z,27.45
2023-08-14T12:05:36.252Z,26.85
2023-08-14T12:08:06.662Z,26.64
2023-08-14T12:10:36.389Z,26.28
2023-08-14T12:13:06.283Z,26.22
2023-08-14T12:15:36.528Z,26.28
2023-08-14T12:18:14.451Z,26.61
2023-08-14T12:20:54.369Z,26.69
2023-08-14T12:23:25.888Z,26.85
2023-08-14T12:25:56.480Z,27.09
2023-08-14T12:28:25.979Z,27.00
2023-08-14T12:30:55.596Z,26.72
2023-08-14T12:33:25.110Z,26.24
2023-08-14T12:35:56.065Z,26.13
2023-08-14T12:38:25.607Z,25.93
2023-08-14T12:40:55.690Z,26.22
2023-08-14T12:43:36.472Z,26.54
2023-08-14T12:48:55.120Z,27.01
2023-08-14T12:51:24.742Z,26.79
2023-08-14T12:53:54.249Z,26.86
2023-08-14T12:56:23.858Z,26.97
2023-08-14T12:58:54.579Z,26.92
2023-08-14T13:01:25.716Z,26.45
2023-08-14T13:03:59.803Z,26.20
2023-08-14T13:06:31.197Z,26.27
2023-08-14T13:09:01.169Z,26.63
2023-08-14T13:11:30.509Z,26.80
2023-08-14T13:14:00.155Z,26.86
2023-08-14T13:16:29.925Z,26.74
2023-08-14T13:19:00.874Z,26.86
2023-08-14T13:21:30.283Z,26.87
2023-08-14T13:23:59.871Z,27.02
2023-08-14T13:26:31.912Z,27.06
2023-08-14T13:29:03.091Z,27.18
2023-08-14T13:31:32.383Z,26.96
2023-08-14T13:34:03.232Z,26.86
2023-08-14T13:36:32.800Z,26.66
2023-08-14T13:39:02.153Z,26.57
2023-08-14T13:41:32.440Z,26.25
2023-08-14T13:44:01.982Z,26.13
2023-08-14T13:46:31.395Z,26.08
2023-08-14T13:49:04.206Z,26.08
2023-08-14T13:51:33.922Z,26.08
2023-08-14T13:54:03.412Z,26.07
2023-08-14T13:56:32.943Z,25.95
2023-08-14T13:59:02.406Z,25.74
2023-08-14T14:01:31.851Z,25.61
2023-08-14T14:04:02.984Z,25.41
2023-08-14T14:06:32.507Z,25.11
2023-08-14T14:09:02.039Z,25.08
2023-08-14T14:11:31.467Z,25.15
2023-08-14T14:14:01.160Z,25.23
2023-08-14T14:16:58.459Z,25.26
2023-08-14T14:19:31.014Z,25.39
2023-08-14T14:22:01.708Z,25.47
2023-08-14T14:24:33.404Z,25.52
2023-08-14T14:27:03.169Z,25.60
2023-08-14T14:29:32.621Z,25.42
2023-08-14T14:32:03.031Z,25.25
2023-08-14T14:34:34.311Z,25.06
2023-08-14T14:37:04.072Z,24.92
2023-08-14T14:39:33.714Z,24.87
2023-08-14T14:42:03.279Z,24.94
2023-08-14T14:44:32.789Z,24.99
2023-08-14T14:47:02.372Z,24.90
2023-08-14T14:49:33.284Z,24.97
2023-08-14T14:52:03.897Z,24.99
2023-08-14T14:54:33.357Z,24.98
2023-08-14T14:57:02.834Z,24.95
2023-08-14T14:59:32.273Z,24.99
2023-08-14T15:02:06.513Z,25.03
2023-08-14T15:04:40.199Z,25.09
2023-08-14T15:07:09.707Z,24.94
2023-08-14T15:09:39.117Z,24.92
2023-08-14T15:12:09.526Z,24.98
2023-08-14T15:14:39.027Z,24.90
2023-08-14T15:17:08.550Z,24.77
2023-08-14T15:19:39.402Z,24.70
2023-08-14T15:22:09.010Z,24.62
2023-08-14T15:24:38.534Z,24.57
2023-08-14T15:27:07.927Z,24.59
2023-08-14T15:29:37.521Z,24.62
2023-08-14T15:32:07.901Z,24.66
2023-08-14T15:34:38.914Z,24.65
2023-08-14T15:37:08.330Z,24.58
2023-08-14T15:39:39.234Z,24.70
2023-08-14T15:42:09.252Z,24.78
2023-08-14T15:44:39.177Z,24.78
2023-08-14T15:48:55.459Z,24.66
2023-08-14T15:51:25.055Z,24.58
2023-08-14T15:53:54.588Z,24.48
2023-08-14T15:56:24.034Z,24.49
2023-08-14T15:58:53.488Z,24.44
2023-08-14T16:01:23.407Z,24.39
2023-08-14T16:03:54.438Z,24.31
2023-08-14T16:06:24.245Z,24.31
2023-08-14T16:08:53.840Z,24.32
2023-08-14T16:11:23.355Z,24.29
2023-08-14T16:13:52.753Z,24.17
2023-08-14T16:16:22.274Z,24.15
2023-08-14T16:18:51.821Z,24.13
2023-08-14T16:21:22.800Z,24.11
2023-08-14T16:23:52.207Z,24.08
2023-08-14T16:26:21.673Z,24.03
2023-08-14T16:28:51.084Z,24.03
2023-08-14T16:31:20.596Z,24.03
2023-08-14T16:33:50.277Z,23.92
2023-08-14T16:36:19.716Z,23.89
2023-08-14T16:38:50.601Z,23.88
2023-08-14T16:41:20.062Z,23.89
2023-08-14T16:43:49.550Z,23.82
2023-08-14T16:46:19.126Z,23.81
2023-08-14T16:48:49.512Z,23.80
2023-08-14T16:51:19.182Z,23.77
2023-08-14T16:53:50.250Z,23.71
2023-08-14T16:56:19.907Z,23.70
2023-08-14T16:58:49.424Z,23.69
2023-08-14T17:01:19.017Z,23.68
2023-08-14T17:03:48.782Z,23.69
2023-08-14T17:06:18.427Z,23.62
2023-08-14T17:08:49.427Z,23.65
2023-08-14T17:11:19.068Z,23.66
2023-08-14T17:13:48.633Z,23.65
2023-08-14T17:16:18.268Z,23.61
2023-08-14T17:18:48.804Z,23.57
2023-08-14T17:21:18.304Z,23.51
2023-08-14T17:23:49.167Z,23.42
2023-08-14T17:26:18.523Z,23.43
2023-08-14T17:28:48.093Z,23.46
2023-08-14T17:31:17.621Z,23.40
2023-08-14T17:33:47.135Z,23.39
2023-08-14T17:36:16.723Z,23.36
2023-08-14T17:38:46.183Z,23.35
2023-08-14T17:41:17.068Z,23.29
2023-08-14T17:43:46.752Z,23.23
2023-08-14T17:46:16.277Z,23.20
2023-08-14T17:48:45.777Z,23.17
2023-08-14T17:51:15.366Z,23.12
2023-08-14T17:53:44.812Z,23.08
2023-08-14T17:56:15.974Z,23.07
2023-08-14T17:58:45.334Z,23.08
2023-08-14T18:01:14.890Z,23.04
2023-08-14T18:03:44.505Z,23.00
2023-08-14T18:06:14.046Z,23.02
2023-08-14T18:08:43.367Z,23.04
2023-08-14T18:11:16.261Z,23.01
2023-08-14T18:13:45.705Z,22.97
2023-08-14T18:16:15.232Z,22.93
2023-08-14T18:18:44.664Z,22.92
2023-08-14T18:21:18.610Z,22.89
2023-08-14T18:23:54.322Z,22.83
2023-08-14T18:26:25.351Z,22.76
2023-08-14T18:28:55.342Z,22.73
2023-08-14T18:31:24.995Z,22.73
2023-08-14T18:33:54.437Z,22.67
2023-08-14T18:36:23.875Z,22.67
2023-08-14T18:38:53.288Z,22.66
2023-08-14T18:41:24.183Z,22.65
2023-08-14T18:43:53.537Z,22.54
2023-08-14T18:48:54.857Z,22.54
2023-08-14T18:51:24.462Z,22.56
2023-08-14T18:53:54.311Z,22.52
2023-08-14T18:56:23.735Z,22.46
2023-08-14T18:58:58.807Z,22.36
2023-08-14T19:01:28.434Z,22.29
2023-08-14T19:03:59.380Z,22.15
2023-08-14T19:06:29.565Z,22.10
2023-08-14T19:08:59.344Z,22.06
2023-08-14T19:11:29.012Z,22.07
2023-08-14T19:13:58.508Z,22.04
2023-08-14T19:16:28.159Z,21.97
2023-08-14T19:18:59.080Z,21.85
2023-08-14T19:21:29.616Z,21.79
2023-08-14T19:23:59.031Z,21.88
2023-08-14T19:26:28.859Z,21.89
2023-08-14T19:28:58.503Z,21.83
2023-08-14T19:31:28.814Z,21.81
2023-08-14T19:34:02.969Z,21.79
2023-08-14T19:36:32.600Z,21.77
2023-08-14T19:39:02.309Z,21.83
2023-08-14T19:41:31.871Z,21.84
2023-08-14T19:44:05.589Z,21.90
2023-08-14T19:46:35.118Z,21.95
2023-08-14T19:49:06.403Z,21.99
2023-08-14T19:51:35.831Z,22.01
2023-08-14T19:54:05.570Z,22.01
2023-08-14T19:56:35.042Z,22.03
2023-08-14T19:59:05.851Z,22.02
2023-08-14T20:01:37.757Z,22.01
2023-08-14T20:04:11.253Z,22.04
2023-08-14T20:06:43.931Z,22.07
2023-08-14T20:09:13.917Z,22.08
2023-08-14T20:11:43.376Z,22.10
2023-08-14T20:14:13.928Z,22.11
2023-08-14T20:16:43.370Z,22.09
2023-08-14T20:19:14.200Z,22.08
2023-08-14T20:21:43.699Z,22.08
2023-08-14T20:24:13.227Z,22.08
2023-08-14T20:26:42.859Z,22.07
2023-08-14T20:29:12.455Z,22.03
2023-08-14T20:31:41.895Z,21.96
2023-08-14T20:34:12.790Z,21.97
2023-08-14T20:36:42.691Z,21.94
2023-08-14T20:39:12.928Z,21.95
2023-08-14T20:41:42.327Z,21.95
2023-08-14T20:44:11.732Z,21.96
2023-08-14T20:46:41.335Z,21.97
2023-08-14T20:49:10.774Z,21.96
2023-08-14T20:51:41.615Z,21.96
2023-08-14T20:54:11.116Z,21.93
2023-08-14T20:56:40.483Z,21.94
2023-08-14T20:59:10.139Z,21.94
2023-08-14T21:01:39.744Z,21.97
2023-08-14T21:04:09.524Z,21.95
2023-08-14T21:06:40.430Z,21.95
2023-08-14T21:09:09.996Z,21.95
2023-08-14T21:11:39.452Z,21.97
2023-08-14T21:14:08.811Z,21.98
2023-08-14T21:16:38.297Z,21.97
2023-08-14T21:19:07.931Z,21.94
2023-08-14T21:21:37.385Z,21.95
2023-08-14T21:24:09.809Z,21.96
2023-08-14T21:26:39.257Z,21.96
2023-08-14T21:29:08.734Z,21.94
2023-08-14T21:31:38.175Z,21.94
2023-08-14T21:34:07.655Z,21.91
2023-08-14T21:36:37.094Z,21.91
2023-08-14T21:39:08.052Z,21.90
2023-08-14T21:41:37.459Z,21.84
2023-08-14T21:44:07.523Z,21.86
2023-08-14T21:48:54.652Z,21.80
2023-08-14T21:51:24.521Z,21.76
2023-08-14T21:53:53.970Z,21.71
2023-08-14T21:56:23.331Z,21.69
2023-08-14T21:58:52.752Z,21.63
2023-08-14T22:01:22.178Z,21.62
2023-08-14T22:03:53.156Z,21.60
2023-08-14T22:06:22.632Z,21.60
2023-08-14T22:08:52.089Z,21.61
2023-08-14T22:11:21.593Z,21.61
2023-08-14T22:13:51.043Z,21.61
2023-08-14T22:16:20.613Z,21.53
2023-08-14T22:18:50.873Z,21.49
2023-08-14T22:21:21.785Z,21.45
2023-08-14T22:23:51.157Z,21.43
2023-08-14T22:26:20.644Z,21.42
2023-08-14T22:28:49.995Z,21.35
2023-08-14T22:31:19.609Z,21.28
2023-08-14T22:33:49.196Z,21.23
2023-08-14T22:36:18.730Z,21.25
2023-08-14T22:38:49.436Z,21.28
2023-08-14T22:41:19.882Z,21.30
2023-08-14T22:43:49.251Z,21.23
2023-08-14T22:46:18.725Z,21.20
2023-08-14T22:48:48.365Z,21.25
2023-08-14T22:51:17.662Z,21.25
2023-08-14T22:53:48.950Z,21.20
2023-08-14T22:56:18.208Z,21.19
2023-08-14T22:58:48.472Z,21.10
2023-08-14T23:01:18.061Z,20.99
2023-08-14T23:03:47.804Z,20.87
2023-08-14T23:06:17.581Z,20.75
2023-08-14T23:08:48.655Z,20.65
2023-08-14T23:11:18.507Z,20.49
2023-08-14T23:13:48.050Z,20.36
2023-08-14T23:16:17.621Z,20.30
2023-08-14T23:18:47.293Z,20.25
2023-08-14T23:21:16.983Z,20.18
2023-08-14T23:23:47.925Z,20.11
2023-08-14T23:26:17.549Z,19.98
2023-08-14T23:28:47.061Z,19.98
2023-08-14T23:31:16.576Z,19.86
2023-08-14T23:33:46.323Z,19.80
2023-08-14T23:36:15.691Z,19.82
2023-08-14T23:38:45.220Z,19.77
2023-08-14T23:41:16.196Z,19.72
2023-08-14T23:43:45.642Z,19.63
2023-08-14T23:46:15.258Z,19.62
2023-08-14T23:48:44.638Z,19.46
2023-08-14T23:51:14.388Z,19.42
2023-08-14T23:53:43.972Z,19.37
2023-08-14T23:56:15.006Z,19.29
2023-08-14T23:58:44.458Z,19.27
